Ataq, Yemen

1:53 PM AST on July 30, 2014 (GMT +0300)
Ataq (OYAT) Elev 3501 ft | 14.52 °N, 46.85 °E | Change Station

Current weather conditions updated 53 minutes ago

Clear
Clear
99 °F
Feels Like 99 °F
N
16
Wind Variable Wind from SE

Today is forecast to be nearly the same temperature as yesterday.

Today
High -- | Low -- °F
--% Chance of Precip.
Yesterday
High -- | Low -- °F
Precip. -- in
5:35 AM 6:22 PM
Waxing Crescent, 11% visible
Pressure 29.86 in
Visibility -9999.0 miles
Clouds
Dew Point 52 °F
Humidity 21%
Rainfall 0.00 in
Snow Depth Not available.
UV Not available.
Pollen Not available.
Air Quality Not available.
Flu Activity Not available.
METAR OYAT 301000Z 13014KT CAVOK 37/11 Q1011

More Conditions Fewer Conditions

Pressure 29.86 in
Visibility -9999.0 miles
Clouds
Dew Point 52 °F
Humidity 21%
Rainfall 0.00 in
Snow Depth Not available.
UV Not available.
Pollen Not available.
Air Quality Not available.
Flu Activity Not available.
METAR OYAT 301000Z 13014KT CAVOK 37/11 Q1011

More Conditions Fewer Conditions

10-Day Weather Forecast

Almanac

Astronomy

Jul. 30, 2014 Rise Set
Actual Time 5:35 AM AST 6:22 PM AST
Civil Twilight 5:12 AM AST 6:45 PM AST
Nautical Twilight 4:46 AM AST 7:12 PM AST
Astronomical Twilight 4:18 AM AST 7:39 PM AST
Moon 8:08 AM AST 8:35 PM AST
Length of Visible Light 13h 32m
Length of Day
12h 47m
Tomorrow will be 0m 35s shorter.
Waxing Crescent, 11% of the Moon is Illuminated
Today
Waxing Crescent
Aug 3
First Quarter
Aug 10
Full
Aug 17
Last Quarter
Aug 25
New

Yesterday's Extremes

Country Highs Country Lows

Community

WunderPhotos

Upload Photos

1,739,037 photos uploaded!

WunderBlogs® & News

Nearby

Snow Depth

Not available.

Earthquake Activity

City Distance Mag. Time & Date
No recent earthquake activity has been reported nearby.
Minimum magnitude displayed is 2.5.

Coastal Water Temperatures

Place Temperature
No Stations Reporting

Nearby Weather Stations

There are no personal weather stations in this area.